Time;durP1;ratioP1;P1;durP2;ratioP2;P2;SDS_P1;SDS_P2;PMS_P1;PMS_P2;Temp;Humidity;BMP_temperature;BMP_pressure;BME280_temperature;BME280_humidity;BME280_pressure;Samples;Min_cycle;Max_cycle;Signal;HPM_P1;HPM_P2
2021/05/29 00:00:46;;;;;;;;;;;;;;;7.98;64.62;101369.09;1687965;83;20265;-75
2021/05/29 00:03:13;;;;;;;;;;;;;;;7.93;64.77;101363.91;1699822;83;20173;-75
2021/05/29 00:05:39;;;;;;;;;;;;;;;7.90;64.77;101363.89;1713918;83;20187;-75
2021/05/29 00:08:05;;;;;;;;;;;;;;;7.88;64.86;101367.31;1693138;83;20213;-75
2021/05/29 00:10:32;;;;;;;;;;;;;;;7.90;65.04;101366.47;1689367;84;20499;-75
2021/05/29 00:12:58;;;;;;;;;;;;;;;7.94;65.09;101365.64;1697748;83;20251;-76
2021/05/29 00:15:24;;;;;;;;;;;;;;;7.98;65.11;101360.95;1711285;83;20306;-76
2021/05/29 00:17:51;;;;;;;;;;;;;;;8.01;65.15;101361.81;1693994;83;20612;-76
2021/05/29 00:20:17;;;;;;;;;;;;;;;7.98;65.10;101360.95;1708455;82;20234;-76
2021/05/29 00:22:44;;;;;;;;;;;;;;;7.95;65.16;101358.77;1687026;82;20217;-76
2021/05/29 00:25:11;;;;;;;;;;;;;;;7.90;65.20;101363.89;1709832;83;20181;-75
2021/05/29 00:27:37;;;;;;;;;;;;;;;7.89;65.27;101359.59;1687209;82;20294;-75
2021/05/29 00:30:04;;;;;;;;;;;;;;;7.83;65.26;101355.69;1700252;83;20508;-75
2021/05/29 00:32:30;;;;;;;;;;;;;;;7.81;65.45;101356.10;1687904;83;20239;-75
2021/05/29 00:34:56;;;;;;;;;;;;;;;7.86;65.55;101358.28;1709854;82;20186;-75
2021/05/29 00:37:22;;;;;;;;;;;;;;;7.90;65.58;101360.03;1717237;83;20206;-75
2021/05/29 00:39:49;;;;;;;;;;;;;;;7.95;65.67;101359.64;1721464;83;20613;-75
2021/05/29 00:42:15;;;;;;;;;;;;;;;8.01;65.72;101365.25;1703966;83;20265;-75
2021/05/29 00:44:48;;;;;;;;;;;;;;;8.04;65.65;101363.98;1721365;83;20289;-75
2021/05/29 00:47:21;;;;;;;;;;;;;;;8.03;65.66;101365.27;1717593;83;20202;-75
2021/05/29 00:49:50;;;;;;;;;;;;;;;8.00;65.66;101365.25;1708457;83;20230;-75
2021/05/29 00:52:16;;;;;;;;;;;;;;;7.97;65.79;101364.38;1704469;83;20501;-75
2021/05/29 00:54:43;;;;;;;;;;;;;;;7.99;65.86;101361.80;1708570;83;20518;-75
2021/05/29 00:57:11;;;;;;;;;;;;;;;8.04;65.92;101362.70;1711549;83;20508;-75
2021/05/29 00:59:37;;;;;;;;;;;;;;;8.03;65.89;101362.27;1713878;83;20195;-75
2021/05/29 01:02:09;;;;;;;;;;;;;;;8.03;65.98;101353.67;1720586;83;20202;-75
2021/05/29 01:04:35;;;;;;;;;;;;;;;8.06;66.04;101362.28;1703014;83;20193;-75
2021/05/29 01:07:02;;;;;;;;;;;;;;;8.06;66.07;101360.13;1719076;83;20163;-75
2021/05/29 01:09:28;;;;;;;;;;;;;;;8.04;66.05;101362.70;1726273;83;20185;-75
2021/05/29 01:11:54;;;;;;;;;;;;;;;8.06;66.19;101361.42;1705593;83;20209;-75
2021/05/29 01:14:27;;;;;;;;;;;;;;;8.09;66.26;101362.73;1722304;83;20231;-75
2021/05/29 01:16:56;;;;;;;;;;;;;;;8.13;66.29;101361.47;1716823;83;20719;-75
2021/05/29 01:19:22;;;;;;;;;;;;;;;8.16;66.25;101359.34;1724364;83;20210;-75
2021/05/29 01:21:53;;;;;;;;;;;;;;;8.18;66.29;101358.50;1720891;82;20278;-75
2021/05/29 01:24:20;;;;;;;;;;;;;;;8.21;66.30;101360.23;1719530;82;20278;-75
2021/05/29 01:26:47;;;;;;;;;;;;;;;8.19;66.38;101356.78;1712562;83;20181;-75
2021/05/29 01:29:14;;;;;;;;;;;;;;;8.18;66.40;101352.48;1723439;83;20211;-75
2021/05/29 01:31:42;;;;;;;;;;;;;;;8.14;66.38;101354.18;1723935;83;20141;-75
2021/05/29 01:34:08;;;;;;;;;;;;;;;8.13;66.52;101349.88;1713803;82;20194;-75
2021/05/29 01:36:37;;;;;;;;;;;;;;;8.18;66.54;101350.77;1736582;81;20223;-75
2021/05/29 01:39:06;;;;;;;;;;;;;;;8.18;66.59;101349.48;1724089;82;20561;-75
2021/05/29 01:41:31;;;;;;;;;;;;;;;8.21;66.62;101349.92;1724775;82;20345;-75
2021/05/29 01:43:57;;;;;;;;;;;;;;;8.26;66.62;101353.39;1703754;82;20706;-76
2021/05/29 01:46:23;;;;;;;;;;;;;;;8.29;66.62;101349.54;1716092;81;20142;-76
2021/05/29 01:48:49;;;;;;;;;;;;;;;8.28;66.65;101349.10;1734220;81;20249;-76
2021/05/29 01:51:18;;;;;;;;;;;;;;;8.28;66.70;101349.97;1706120;81;20165;-76
2021/05/29 01:53:45;;;;;;;;;;;;;;;8.29;66.62;101352.11;1725979;81;20202;-76
2021/05/29 01:56:12;;;;;;;;;;;;;;;8.25;66.68;101351.66;1730157;81;20230;-76
2021/05/29 01:58:39;;;;;;;;;;;;;;;8.26;66.69;101356.83;1724898;81;20213;-76
2021/05/29 02:01:06;;;;;;;;;;;;;;;8.25;66.68;101355.10;1724749;81;20145;-76
2021/05/29 02:03:32;;;;;;;;;;;;;;;8.25;66.73;101358.11;1729799;81;20174;-76
2021/05/29 02:05:59;;;;;;;;;;;;;;;8.25;66.74;101359.39;1730750;81;20149;-76
2021/05/29 02:08:26;;;;;;;;;;;;;;;8.24;66.75;101359.82;1718144;81;20232;-76
2021/05/29 02:10:52;;;;;;;;;;;;;;;8.21;66.70;101360.23;1715115;82;20157;-76
2021/05/29 02:13:26;;;;;;;;;;;;;;;8.15;66.68;101361.48;1724889;82;20210;-76
2021/05/29 02:15:53;;;;;;;;;;;;;;;8.09;66.77;101359.73;1725792;81;20824;-76
2021/05/29 02:18:19;;;;;;;;;;;;;;;8.08;66.83;101363.58;1727960;81;20233;-76
2021/05/29 02:20:52;;;;;;;;;;;;;;;8.07;66.93;101362.72;1729769;81;20182;-76
2021/05/29 02:23:26;;;;;;;;;;;;;;;8.08;67.01;101363.16;1726635;81;20190;-74
2021/05/29 02:26:03;;;;;;;;;;;;;;;8.11;67.05;101362.31;1719574;81;20196;-74
2021/05/29 02:28:30;;;;;;;;;;;;;;;8.12;67.05;101368.77;1733698;81;20210;-74
2021/05/29 02:30:56;;;;;;;;;;;;;;;8.13;67.08;101364.05;1725562;81;20202;-74
2021/05/29 02:33:23;;;;;;;;;;;;;;;8.16;67.13;101362.78;1732301;81;20234;-74
2021/05/29 02:35:50;;;;;;;;;;;;;;;8.18;67.16;101364.08;1732700;81;20161;-76
2021/05/29 02:38:16;;;;;;;;;;;;;;;8.22;67.21;101361.52;1730159;83;20186;-76
2021/05/29 02:40:44;;;;;;;;;;;;;;;8.26;67.30;101362.41;1743590;81;20206;-76
2021/05/29 02:43:10;;;;;;;;;;;;;;;8.26;67.35;101359.40;1734861;81;20206;-76
2021/05/29 02:45:39;;;;;;;;;;;;;;;8.26;67.38;101356.83;1731957;81;20514;-76
2021/05/29 02:48:06;;;;;;;;;;;;;;;8.29;67.41;101356.84;1735369;81;20213;-76
2021/05/29 02:50:32;;;;;;;;;;;;;;;8.32;67.38;101358.54;1720535;81;20193;-76
2021/05/29 02:53:07;;;;;;;;;;;;;;;8.34;67.41;101361.16;1748752;81;20152;-76
2021/05/29 02:55:34;;;;;;;;;;;;;;;8.35;67.48;101362.45;1756403;81;20192;-76
2021/05/29 02:58:00;;;;;;;;;;;;;;;8.36;67.50;101362.03;1727392;82;20308;-76
2021/05/29 03:00:36;;;;;;;;;;;;;;;8.37;67.54;101357.31;1709785;82;20274;-76
2021/05/29 03:03:04;;;;;;;;;;;;;;;8.37;67.55;101365.04;1675967;85;20298;-76
2021/05/29 03:05:31;;;;;;;;;;;;;;;8.37;67.55;101360.75;1679575;84;20259;-76
2021/05/29 03:07:57;;;;;;;;;;;;;;;8.38;67.59;101362.47;1668014;84;20504;-75
2021/05/29 03:10:23;;;;;;;;;;;;;;;8.41;67.58;101365.06;1664319;84;20199;-75
2021/05/29 03:12:50;;;;;;;;;;;;;;;8.43;67.60;101369.80;1685209;84;20253;-75
2021/05/29 03:15:19;;;;;;;;;;;;;;;8.44;67.59;101362.92;1677216;84;20227;-75
2021/05/29 03:17:46;;;;;;;;;;;;;;;8.45;67.64;101366.80;1692482;82;20263;-76
2021/05/29 03:20:16;;;;;;;;;;;;;;;8.47;67.68;101370.25;1677384;84;20256;-76
2021/05/29 03:22:42;;;;;;;;;;;;;;;8.47;67.65;101367.67;1715303;82;20200;-76
2021/05/29 03:25:09;;;;;;;;;;;;;;;8.48;67.69;101372.40;1683193;82;20320;-76
2021/05/29 03:27:38;;;;;;;;;;;;;;;8.48;67.75;101368.11;1705367;82;20256;-76
2021/05/29 03:30:07;;;;;;;;;;;;;;;8.51;67.77;101365.55;1706624;82;20224;-75
2021/05/29 03:32:33;;;;;;;;;;;;;;;8.50;67.75;101358.66;1706887;83;20670;-75
2021/05/29 03:35:06;;;;;;;;;;;;;;;8.46;67.69;101359.93;1688944;82;20202;-75
2021/05/29 03:37:32;;;;;;;;;;;;;;;8.41;67.82;101368.93;1672622;84;20561;-75
2021/05/29 03:39:58;;;;;;;;;;;;;;;8.44;67.98;101366.37;1664738;84;20604;-75
2021/05/29 03:42:28;;;;;;;;;;;;;;;8.47;68.03;101357.36;1674019;85;20249;-75
2021/05/29 03:44:54;;;;;;;;;;;;;;;8.51;68.08;101362.11;1662263;83;20194;-75
2021/05/29 03:47:20;;;;;;;;;;;;;;;8.53;68.13;101359.97;1680691;85;20194;-75
2021/05/29 03:49:47;;;;;;;;;;;;;;;8.59;68.18;101361.71;1681023;84;20229;-75
2021/05/29 03:52:13;;;;;;;;;;;;;;;8.65;68.21;101362.16;1672845;85;20190;-76
2021/05/29 03:54:39;;;;;;;;;;;;;;;8.71;68.21;101367.34;1680999;84;20277;-75
2021/05/29 03:57:07;;;;;;;;;;;;;;;8.75;68.26;101369.94;1679693;85;20580;-75
2021/05/29 03:59:34;;;;;;;;;;;;;;;8.75;68.29;101366.07;1678659;85;20281;-75
2021/05/29 04:02:00;;;;;;;;;;;;;;;8.78;68.40;101367.38;1664328;85;20218;-75
2021/05/29 04:04:26;;;;;;;;;;;;;;;8.81;68.46;101378.12;1663314;83;20348;-75
2021/05/29 04:06:52;;;;;;;;;;;;;;;8.85;68.55;101370.80;1655452;85;20601;-75
2021/05/29 04:09:18;;;;;;;;;;;;;;;8.91;68.56;101370.39;1625797;86;20271;-76
2021/05/29 04:11:44;;;;;;;;;;;;;;;8.98;68.64;101367.41;1663586;84;614908;-76
2021/05/29 04:14:10;;;;;;;;;;;;;;;9.03;68.62;101364.41;1678274;85;20209;-76
2021/05/29 04:16:37;;;;;;;;;;;;;;;9.10;68.66;101366.58;1680258;85;20258;-76
2021/05/29 04:19:03;;;;;;;;;;;;;;;9.13;68.68;101373.03;1677714;84;20266;-76
2021/05/29 04:21:29;;;;;;;;;;;;;;;9.16;68.72;101371.31;1660011;84;20292;-75
2021/05/29 04:23:56;;;;;;;;;;;;;;;9.23;68.78;101364.02;1671479;84;20206;-75
2021/05/29 04:26:22;;;;;;;;;;;;;;;9.28;68.83;101371.34;1661529;85;20308;-75
2021/05/29 04:28:48;;;;;;;;;;;;;;;9.35;68.82;101368.34;1646875;84;20272;-75
2021/05/29 04:31:14;;;;;;;;;;;;;;;9.41;68.85;101366.16;1675194;84;20261;-76
2021/05/29 04:33:41;;;;;;;;;;;;;;;9.47;68.90;101374.77;1663944;84;20306;-75
2021/05/29 04:36:07;;;;;;;;;;;;;;;9.54;68.87;101370.05;1666196;84;20334;-75
2021/05/29 04:38:33;;;;;;;;;;;;;;;9.59;68.89;101371.34;1662862;85;20201;-75
2021/05/29 04:41:15;;;;;;;;;;;;;;;9.64;68.91;101370.91;1657338;85;20605;-75
2021/05/29 04:43:41;;;;;;;;;;;;;;;9.72;68.93;101365.75;1670171;85;20557;-75
2021/05/29 04:46:07;;;;;;;;;;;;;;;9.76;68.95;101361.88;1659336;85;20213;-75
2021/05/29 04:48:33;;;;;;;;;;;;;;;9.82;68.95;101355.41;1669801;85;20288;-75
2021/05/29 04:51:12;;;;;;;;;;;;;;;9.88;69.02;101357.95;1642634;85;20866;-75
2021/05/29 04:53:42;;;;;;;;;;;;;;;9.95;69.00;101362.25;1666099;85;20565;-75
2021/05/29 04:56:08;;;;;;;;;;;;;;;10.04;69.05;101365.69;1650375;85;20254;-75
2021/05/29 04:58:36;;;;;;;;;;;;;;;10.07;69.00;101361.80;1642762;85;21151;-76
2021/05/29 05:01:03;;;;;;;;;;;;;;;10.09;68.97;101364.81;1661252;85;20194;-75
2021/05/29 05:03:29;;;;;;;;;;;;;;;10.14;69.00;101366.95;1662828;84;20217;-75
2021/05/29 05:05:56;;;;;;;;;;;;;;;10.20;68.96;101359.66;1663445;85;20583;-75
2021/05/29 05:08:22;;;;;;;;;;;;;;;10.19;68.99;101356.61;1649819;85;20585;-75
2021/05/29 05:10:48;;;;;;;;;;;;;;;10.23;69.11;101359.22;1656076;85;20280;-75
2021/05/29 05:13:19;;;;;;;;;;;;;;;10.28;69.12;101356.62;1665112;85;20575;-76
2021/05/29 05:15:45;;;;;;;;;;;;;;;10.32;69.18;101358.33;1661675;85;20206;-75
2021/05/29 05:18:12;;;;;;;;;;;;;;;10.36;69.17;101361.34;1672083;85;20273;-75
2021/05/29 05:20:39;;;;;;;;;;;;;;;10.40;69.15;101363.48;1645341;85;20586;-75
2021/05/29 05:23:05;;;;;;;;;;;;;;;10.43;69.07;101363.44;1667812;85;20673;-75
2021/05/29 05:25:32;;;;;;;;;;;;;;;10.40;69.17;101366.89;1665643;85;20224;-74
2021/05/29 05:28:02;;;;;;;;;;;;;;;10.44;69.22;101375.50;1653441;85;20684;-74
2021/05/29 05:30:28;;;;;;;;;;;;;;;10.48;69.24;101376.78;1643822;86;20199;-74
2021/05/29 05:32:58;;;;;;;;;;;;;;;10.50;69.19;101368.58;1656345;85;20243;-75
2021/05/29 05:35:25;;;;;;;;;;;;;;;10.52;69.28;101377.20;1651097;85;20624;-75
2021/05/29 05:37:51;;;;;;;;;;;;;;;10.56;69.24;101380.20;1641149;85;20605;-75
2021/05/29 05:40:17;;;;;;;;;;;;;;;10.63;69.30;101382.77;1655128;85;20253;-75
2021/05/29 05:42:49;;;;;;;;;;;;;;;10.67;69.37;101384.04;1643250;85;20269;-75
2021/05/29 05:45:15;;;;;;;;;;;;;;;10.72;69.30;101390.05;1648757;85;20713;-75
2021/05/29 05:47:41;;;;;;;;;;;;;;;10.75;69.31;101385.30;1647100;85;20514;-75
2021/05/29 05:50:14;;;;;;;;;;;;;;;10.79;69.35;101387.01;1647133;85;20544;-75
2021/05/29 05:52:40;;;;;;;;;;;;;;;10.81;69.41;101390.02;1632569;85;20637;-75
2021/05/29 05:55:08;;;;;;;;;;;;;;;10.84;69.46;101396.47;1658288;85;20223;-74
2021/05/29 05:57:34;;;;;;;;;;;;;;;10.87;69.42;101395.16;1636252;87;20628;-74
2021/05/29 06:00:01;;;;;;;;;;;;;;;10.92;69.31;101384.76;1641908;87;20553;-74
2021/05/29 06:02:27;;;;;;;;;;;;;;;10.94;69.51;101382.59;1646147;85;20244;-75
2021/05/29 06:04:56;;;;;;;;;;;;;;;11.00;69.56;101375.66;1643838;85;20565;-75
2021/05/29 06:07:22;;;;;;;;;;;;;;;11.01;69.52;101377.38;1643400;85;20198;-75
2021/05/29 06:09:48;;;;;;;;;;;;;;;11.01;69.56;101383.42;1636495;85;20561;-75
2021/05/29 06:12:17;;;;;;;;;;;;;;;11.05;69.51;101386.85;1651992;85;20565;-75
2021/05/29 06:20:19;;;;;;;;;;;;;;;11.13;69.68;101387.67;1656573;85;20726;-75
2021/05/29 06:22:51;;;;;;;;;;;;;;;11.19;69.80;101391.52;1639353;85;20537;-75
2021/05/29 06:25:20;;;;;;;;;;;;;;;11.26;69.84;101398.38;1640277;85;20607;-74
2021/05/29 06:27:46;;;;;;;;;;;;;;;11.35;69.83;101391.84;1660282;85;20231;-74
2021/05/29 06:30:16;;;;;;;;;;;;;;;11.42;69.84;101395.25;1656592;85;20237;-74
2021/05/29 06:32:42;;;;;;;;;;;;;;;11.49;69.86;101393.02;1645651;85;20682;-74
2021/05/29 06:35:09;;;;;;;;;;;;;;;11.54;69.85;101395.13;1652583;85;20612;-74
2021/05/29 06:37:37;;;;;;;;;;;;;;;11.62;69.88;101394.64;1653091;85;20553;-74
2021/05/29 06:40:06;;;;;;;;;;;;;;;11.69;69.78;101391.57;1672506;85;20281;-74
2021/05/29 06:42:31;;;;;;;;;;;;;;;11.76;69.92;101388.92;1647612;86;20190;-74
2021/05/29 06:44:57;;;;;;;;;;;;;;;11.87;70.03;101385.83;1642116;85;20877;-74
2021/05/29 06:47:24;;;;;;;;;;;;;;;12.05;70.11;101386.06;1657208;85;20545;-74
2021/05/29 06:49:50;;;;;;;;;;;;;;;12.19;70.02;101380.31;1649861;85;20568;-74
2021/05/29 06:52:20;;;;;;;;;;;;;;;12.35;70.01;101386.63;1649034;85;20253;-74
2021/05/29 07:00:00;;;;;;;;;;;;;;;13.14;70.00;101382.98;1676481;85;20261;-74
2021/05/29 07:02:26;;;;;;;;;;;;;;;13.29;69.63;101379.34;1658196;85;20488;-75
2021/05/29 07:04:52;;;;;;;;;;;;;;;13.38;69.77;101376.17;1653464;85;20524;-75
2021/05/29 07:07:19;;;;;;;;;;;;;;;13.58;69.81;101381.89;1656049;85;20501;-75
2021/05/29 07:09:45;;;;;;;;;;;;;;;13.83;69.76;101378.88;1643502;85;20180;-75
2021/05/29 07:12:11;;;;;;;;;;;;;;;14.03;69.70;101385.04;1656510;85;20259;-75
2021/05/29 07:14:37;;;;;;;;;;;;;;;14.19;69.47;101386.45;1662057;85;20283;-75
2021/05/29 07:17:05;;;;;;;;;;;;;;;14.29;69.37;101390.59;1653899;85;20282;-75
2021/05/29 07:19:31;;;;;;;;;;;;;;;14.43;69.42;101400.33;1656668;86;20265;-75
2021/05/29 07:21:57;;;;;;;;;;;;;;;14.52;69.32;101405.80;1658001;85;20224;-75
2021/05/29 07:24:33;;;;;;;;;;;;;;;14.48;69.12;101408.91;1648898;85;20532;-75
2021/05/29 07:26:59;;;;;;;;;;;;;;;14.38;69.17;101403.88;1668050;84;20178;-75
2021/05/29 07:29:27;;;;;;;;;;;;;;;14.22;69.09;101409.36;1648852;85;20596;-75
2021/05/29 07:31:53;;;;;;;;;;;;;;;14.12;69.16;101414.31;1650821;85;20205;-75
2021/05/29 07:34:20;;;;;;;;;;;;;;;14.04;69.19;101410.13;1650568;86;20266;-75
2021/05/29 07:36:46;;;;;;;;;;;;;;;13.96;69.23;101409.44;1645650;85;20614;-75
2021/05/29 07:39:12;;;;;;;;;;;;;;;13.87;69.21;101407.84;1639129;85;20628;-75
2021/05/29 07:41:39;;;;;;;;;;;;;;;13.75;69.28;101397.20;1638316;85;20266;-75
2021/05/29 07:44:07;;;;;;;;;;;;;;;13.66;69.15;101384.36;1657286;85;20577;-75
2021/05/29 07:46:34;;;;;;;;;;;;;;;13.58;69.40;101374.53;1633774;85;20929;-75
2021/05/29 07:49:00;;;;;;;;;;;;;;;13.58;69.42;101375.83;1641467;87;21154;-75
2021/05/29 07:51:26;;;;;;;;;;;;;;;13.55;69.41;101375.87;1656580;85;20258;-75
2021/05/29 07:53:53;;;;;;;;;;;;;;;13.53;69.50;101377.20;1635171;85;20186;-75
2021/05/29 07:56:20;;;;;;;;;;;;;;;13.55;69.45;101371.54;1648106;85;20246;-75
2021/05/29 07:58:50;;;;;;;;;;;;;;;13.61;69.68;101368.42;1638787;85;20589;-75
2021/05/29 08:01:16;;;;;;;;;;;;;;;13.75;69.72;101364.72;1636361;85;20589;-75
2021/05/29 08:03:43;;;;;;;;;;;;;;;13.95;69.75;101365.67;1648839;85;20221;-75
2021/05/29 08:06:20;;;;;;;;;;;;;;;14.19;69.84;101369.54;1641740;85;20281;-75
2021/05/29 08:08:41;;;;;;;;;;;;;;;14.44;69.67;101363.02;1645078;85;20255;-75
2021/05/29 08:11:14;;;;;;;;;;;;;;;14.72;69.52;101356.77;1643057;86;20273;-75
2021/05/29 08:13:36;;;;;;;;;;;;;;;15.04;69.57;101360.42;1641060;85;20230;-75
2021/05/29 08:16:03;;;;;;;;;;;;;;;15.31;69.23;101358.91;1661733;85;20202;-75
2021/05/29 08:18:29;;;;;;;;;;;;;;;15.42;69.03;101361.67;1643563;85;20177;-75
2021/05/29 08:20:55;;;;;;;;;;;;;;;15.51;69.04;101364.50;1643806;85;20265;-75
2021/05/29 08:23:21;;;;;;;;;;;;;;;15.66;69.16;101360.66;1644088;85;20210;-75
2021/05/29 08:25:46;;;;;;;;;;;;;;;15.87;68.80;101362.28;1647168;85;20238;-75
2021/05/29 08:28:13;;;;;;;;;;;;;;;15.94;68.56;101355.16;1640087;87;20254;-75
2021/05/29 08:30:40;;;;;;;;;;;;;;;15.98;68.71;101357.23;1637462;85;20246;-75
2021/05/29 08:33:07;;;;;;;;;;;;;;;16.19;68.74;101358.80;1648662;85;20201;-75
2021/05/29 08:35:35;;;;;;;;;;;;;;;16.31;68.44;101368.05;1657026;85;20321;-75
2021/05/29 08:38:02;;;;;;;;;;;;;;;16.22;68.21;101363.93;1642562;85;20184;-75
2021/05/29 08:40:28;;;;;;;;;;;;;;;16.07;68.43;101364.38;1646469;85;20147;-75
2021/05/29 08:43:01;;;;;;;;;;;;;;;15.85;68.29;101369.30;1655948;86;20171;-75
2021/05/29 08:45:27;;;;;;;;;;;;;;;15.70;68.48;101367.07;1654895;85;20206;-76
2021/05/29 08:47:53;;;;;;;;;;;;;;;15.66;68.51;101364.12;1673789;84;20142;-76
2021/05/29 08:50:19;;;;;;;;;;;;;;;15.65;68.49;101365.02;1677578;84;20875;-76
2021/05/29 08:52:45;;;;;;;;;;;;;;;15.51;68.43;101366.66;1667637;85;20190;-75
2021/05/29 08:55:15;;;;;;;;;;;;;;;15.42;68.45;101368.19;1650526;85;20257;-75
2021/05/29 08:57:41;;;;;;;;;;;;;;;15.43;68.54;101371.65;1665703;85;20299;-75
2021/05/29 09:00:10;;;;;;;;;;;;;;;15.41;68.47;101372.98;1657205;85;20289;-75
2021/05/29 09:03:03;;;;;;;;;;;;;;;15.43;68.62;101372.50;1662450;85;20156;-75
2021/05/29 09:05:49;;;;;;;;;;;;;;;15.38;68.48;101370.45;1653504;85;20580;-75
2021/05/29 09:08:16;;;;;;;;;;;;;;;15.32;68.38;101367.99;1640254;85;20209;-75
2021/05/29 09:10:46;;;;;;;;;;;;;;;15.25;68.31;101367.72;1658050;85;20158;-75
2021/05/29 09:13:14;;;;;;;;;;;;;;;15.17;68.23;101367.90;1666073;85;20166;-75
2021/05/29 09:15:58;;;;;;;;;;;;;;;15.06;68.20;101381.64;1648779;85;20271;-75
2021/05/29 09:18:40;;;;;;;;;;;;;;;14.95;68.22;101380.16;1644173;85;20250;-75
2021/05/29 09:21:30;;;;;;;;;;;;;;;14.86;68.25;101379.47;1654423;85;20181;-75
2021/05/29 09:24:03;;;;;;;;;;;;;;;14.67;68.10;101379.44;1657655;85;20245;-75
2021/05/29 09:26:49;;;;;;;;;;;;;;;14.57;68.23;101370.09;1657390;85;20258;-75
2021/05/29 09:29:29;;;;;;;;;;;;;;;14.52;68.23;101375.87;1637308;85;20180;-75
2021/05/29 09:32:14;;;;;;;;;;;;;;;14.43;68.29;101370.84;1654560;84;20250;-75
2021/05/29 09:35:00;;;;;;;;;;;;;;;14.28;68.22;101375.87;1650512;85;20245;-75
2021/05/29 09:37:27;;;;;;;;;;;;;;;14.11;68.10;101371.42;1658771;85;20423;-75
2021/05/29 09:39:55;;;;;;;;;;;;;;;14.01;68.28;101375.97;1669761;85;20296;-75
2021/05/29 09:42:26;;;;;;;;;;;;;;;14.02;68.48;101378.98;1659829;85;20265;-75
2021/05/29 09:44:52;;;;;;;;;;;;;;;14.12;68.49;101380.50;1650449;85;20274;-75
2021/05/29 09:47:19;;;;;;;;;;;;;;;14.19;68.51;101381.25;1651921;85;20278;-75
2021/05/29 09:49:52;;;;;;;;;;;;;;;14.31;68.42;101374.95;1668286;85;20293;-75
2021/05/29 09:52:27;;;;;;;;;;;;;;;14.38;68.42;101373.51;1657146;85;20273;-75
2021/05/29 09:55:01;;;;;;;;;;;;;;;14.47;68.30;101372.06;1643804;85;20283;-75
2021/05/29 09:57:27;;;;;;;;;;;;;;;14.61;68.37;101370.89;1644996;85;20264;-75
2021/05/29 10:00:00;;;;;;;;;;;;;;;14.80;68.21;101368.33;1638390;85;20273;-75
2021/05/29 10:02:28;;;;;;;;;;;;;;;14.96;68.19;101371.02;1650967;86;20277;-75
2021/05/29 10:04:56;;;;;;;;;;;;;;;15.08;68.02;101372.45;1656352;85;20266;-76
2021/05/29 10:07:23;;;;;;;;;;;;;;;15.14;67.91;101366.66;1649702;85;20261;-75
2021/05/29 10:09:52;;;;;;;;;;;;;;;15.18;67.93;101368.76;1664850;85;20286;-75
2021/05/29 10:12:19;;;;;;;;;;;;;;;15.19;68.03;101364.81;1659080;85;20285;-75
2021/05/29 10:14:45;;;;;;;;;;;;;;;15.21;67.93;101360.88;1649848;85;20277;-75
2021/05/29 10:17:14;;;;;;;;;;;;;;;15.22;67.99;101356.92;1656615;85;20297;-75
2021/05/29 10:19:41;;;;;;;;;;;;;;;15.33;68.03;101356.67;1664090;85;20593;-75
2021/05/29 10:22:14;;;;;;;;;;;;;;;15.42;68.03;101351.69;1658534;85;20170;-75
2021/05/29 10:24:49;;;;;;;;;;;;;;;15.46;68.11;101348.12;1646032;85;20203;-75
2021/05/29 10:27:23;;;;;;;;;;;;;;;15.59;68.07;101339.59;1649666;85;20203;-75
2021/05/29 10:29:45;;;;;;;;;;;;;;;15.68;68.03;101342.78;1664794;85;20227;-75
2021/05/29 10:32:20;;;;;;;;;;;;;;;15.86;68.16;101334.94;1648526;85;20190;-75
2021/05/29 10:34:55;;;;;;;;;;;;;;;16.01;68.17;101329.77;1662771;85;20198;-75
2021/05/29 10:37:46;;;;;;;;;;;;;;;16.20;68.00;101315.29;1657699;85;20268;-75
2021/05/29 10:40:19;;;;;;;;;;;;;;;16.31;67.64;101321.06;1637196;85;20265;-75
2021/05/29 10:42:49;;;;;;;;;;;;;;;16.44;67.54;101309.38;1651360;85;20277;-75
2021/05/29 10:45:18;;;;;;;;;;;;;;;16.54;67.51;101312.58;1648852;85;20167;-75
2021/05/29 10:48:05;;;;;;;;;;;;;;;16.51;67.19;101311.36;1652361;85;20652;-75
2021/05/29 10:50:54;;;;;;;;;;;;;;;16.51;67.26;101308.75;1631947;85;20259;-75
2021/05/29 10:53:46;;;;;;;;;;;;;;;16.51;67.30;101301.77;1660092;85;20290;-75
2021/05/29 10:56:23;;;;;;;;;;;;;;;16.45;67.17;101301.09;1665478;85;20282;-75
2021/05/29 10:59:18;;;;;;;;;;;;;;;16.43;67.29;101294.61;1650636;85;20280;-75
2021/05/29 11:01:45;;;;;;;;;;;;;;;16.47;67.21;101285.79;1668463;85;20173;-75
2021/05/29 11:04:22;;;;;;;;;;;;;;;16.41;67.17;101294.25;1664859;84;20182;-75
2021/05/29 11:06:52;;;;;;;;;;;;;;;16.36;67.15;101285.70;1661760;85;20460;-75
2021/05/29 11:09:30;;;;;;;;;;;;;;;16.28;67.09;101296.80;1626985;86;20483;-75
2021/05/29 11:12:12;;;;;;;;;;;;;;;16.24;66.97;101290.82;1654330;85;20152;-75
2021/05/29 11:14:51;;;;;;;;;;;;;;;16.15;66.87;101295.84;1645234;85;20143;-75
2021/05/29 11:17:27;;;;;;;;;;;;;;;16.05;66.72;101287.05;1647544;85;20170;-75
2021/05/29 11:20:11;;;;;;;;;;;;;;;15.96;66.95;101284.23;1652091;85;20229;-75
2021/05/29 11:22:43;;;;;;;;;;;;;;;15.83;66.78;101283.72;1653234;85;20262;-75
2021/05/29 11:25:12;;;;;;;;;;;;;;;15.72;67.01;101292.27;1657644;85;20251;-74
2021/05/29 11:27:39;;;;;;;;;;;;;;;15.70;67.09;101292.76;1652345;85;20266;-74
2021/05/29 11:30:12;;;;;;;;;;;;;;;15.68;66.86;101279.36;1665006;85;20246;-74
2021/05/29 11:35:29;;;;;;;;;;;;;;;15.49;66.68;101298.07;1658355;84;20277;-74
2021/05/29 11:38:16;;;;;;;;;;;;;;;15.37;66.74;101299.68;1659346;85;20265;-74
2021/05/29 11:40:59;;;;;;;;;;;;;;;15.24;66.33;101289.15;1656617;85;20269;-75
2021/05/29 11:43:43;;;;;;;;;;;;;;;15.15;66.24;101293.28;1642802;85;20213;-75
2021/05/29 11:46:12;;;;;;;;;;;;;;;15.10;66.42;101296.44;1649587;85;20263;-76
2021/05/29 11:48:44;;;;;;;;;;;;;;;15.17;66.43;101300.61;1641456;85;20308;-76
2021/05/29 11:51:15;;;;;;;;;;;;;;;15.28;66.40;101297.75;1652905;85;20287;-76
2021/05/29 11:53:45;;;;;;;;;;;;;;;15.47;66.57;101303.77;1657479;85;20178;-76
2021/05/29 11:56:12;;;;;;;;;;;;;;;15.62;66.29;101310.80;1661074;85;20337;-75
2021/05/29 11:58:50;;;;;;;;;;;;;;;15.63;66.20;101314.67;1643654;85;20254;-76
2021/05/29 12:01:18;;;;;;;;;;;;;;;15.53;65.97;101327.53;1664075;85;20257;-75
2021/05/29 12:03:54;;;;;;;;;;;;;;;15.29;66.42;101330.73;1659697;85;20143;-75
2021/05/29 12:06:34;;;;;;;;;;;;;;;15.05;66.71;101337.39;1644048;85;20187;-75
2021/05/29 12:09:13;;;;;;;;;;;;;;;14.76;66.84;101354.52;1651465;85;20272;-75
2021/05/29 12:11:42;;;;;;;;;;;;;;;14.44;67.32;101356.51;1644724;85;20252;-75
2021/05/29 12:14:11;;;;;;;;;;;;;;;14.18;67.28;101356.13;1651612;85;20176;-75
2021/05/29 12:16:40;;;;;;;;;;;;;;;14.02;67.78;101348.22;1644078;85;20173;-75
2021/05/29 12:19:06;;;;;;;;;;;;;;;13.93;67.72;101338.84;1674217;85;20255;-75
2021/05/29 12:21:47;;;;;;;;;;;;;;;13.80;67.77;101338.20;1644407;85;20520;-75
2021/05/29 12:24:15;;;;;;;;;;;;;;;13.78;68.17;101326.97;1637602;85;20177;-73
2021/05/29 12:26:43;;;;;;;;;;;;;;;13.70;67.84;101318.45;1665412;85;20378;-73
2021/05/29 12:29:09;;;;;;;;;;;;;;;13.74;68.15;101317.52;1673360;85;20174;-73
2021/05/29 12:31:55;;;;;;;;;;;;;;;13.84;68.14;101321.66;1643382;85;20186;-73
2021/05/29 12:34:23;;;;;;;;;;;;;;;13.96;68.05;101315.39;1661671;85;20171;-73
2021/05/29 12:37:05;;;;;;;;;;;;;;;14.07;68.13;101308.20;1650350;85;20166;-73
2021/05/29 12:39:55;;;;;;;;;;;;;;;14.18;68.06;101304.95;1651278;86;20174;-73
2021/05/29 12:42:28;;;;;;;;;;;;;;;14.29;68.26;101306.48;1638751;86;20156;-75
2021/05/29 12:44:59;;;;;;;;;;;;;;;14.46;68.17;101321.34;1631263;85;20171;-75
2021/05/29 12:47:30;;;;;;;;;;;;;;;14.56;68.28;101324.14;1649411;85;20207;-75
2021/05/29 12:49:59;;;;;;;;;;;;;;;14.65;68.26;101330.91;1646441;87;20202;-75
2021/05/29 12:52:31;;;;;;;;;;;;;;;14.72;68.21;101325.53;1645383;87;20179;-75
2021/05/29 12:55:04;;;;;;;;;;;;;;;14.65;68.00;101328.30;1643219;86;20177;-75
2021/05/29 12:57:43;;;;;;;;;;;;;;;14.60;67.98;101329.70;1640956;86;20167;-75
2021/05/29 13:00:25;;;;;;;;;;;;;;;14.52;67.99;101325.98;1649483;85;20212;-75
2021/05/29 13:09:29;;;;;;;;;;;;;;;14.48;68.30;101309.16;1642935;86;20183;-75
2021/05/29 13:11:05;;;;;;;;;;;;;;;14.55;68.34;101309.45;1635104;87;20151;-75